createdAt,value
2023-03-05T00:01:11.122Z,2.28
2023-03-05T00:03:37.926Z,2.23
2023-03-05T00:06:04.693Z,2.22
2023-03-05T00:08:32.129Z,2.27
2023-03-05T00:11:04.436Z,2.23
2023-03-05T00:13:31.762Z,2.20
2023-03-05T00:15:58.316Z,2.18
2023-03-05T00:18:25.206Z,2.16
2023-03-05T00:20:51.672Z,2.18
2023-03-05T00:23:18.070Z,2.17
2023-03-05T00:25:46.003Z,2.17
2023-03-05T00:28:13.325Z,2.13
2023-03-05T00:30:40.100Z,2.14
2023-03-05T00:33:07.022Z,2.08
2023-03-05T00:35:39.742Z,2.09
2023-03-05T00:38:06.149Z,2.12
2023-03-05T00:40:38.982Z,2.08
2023-03-05T00:43:06.121Z,2.09
2023-03-05T00:45:33.252Z,2.09
2023-03-05T00:48:00.122Z,2.12
2023-03-05T00:50:26.892Z,2.09
2023-03-05T00:52:53.500Z,2.09
2023-03-05T00:55:19.932Z,2.05
2023-03-05T00:57:46.357Z,2.03
2023-03-05T01:00:14.282Z,2.08
2023-03-05T01:02:40.828Z,2.03
2023-03-05T01:05:07.732Z,2.03
2023-03-05T01:07:34.403Z,1.95
2023-03-05T01:10:00.860Z,2.02
2023-03-05T01:12:27.354Z,1.92
2023-03-05T01:14:53.694Z,1.88
2023-03-05T01:17:20.158Z,1.88
2023-03-05T01:19:46.544Z,1.86
2023-03-05T01:22:12.920Z,1.85
2023-03-05T01:24:39.307Z,1.85
2023-03-05T01:27:05.774Z,1.84
2023-03-05T01:29:32.126Z,1.84
2023-03-05T01:31:58.690Z,1.80
2023-03-05T01:34:25.055Z,1.77
2023-03-05T01:36:51.501Z,1.82
2023-03-05T01:39:17.997Z,1.76
2023-03-05T01:41:44.334Z,1.78
2023-03-05T01:44:25.362Z,1.86
2023-03-05T01:46:52.094Z,1.76
2023-03-05T01:49:27.737Z,1.72
2023-03-05T01:52:17.669Z,1.79
2023-03-05T01:54:50.471Z,1.63
2023-03-05T01:57:27.959Z,1.65
2023-03-05T02:00:00.203Z,1.65
2023-03-05T02:02:26.646Z,1.63
2023-03-05T02:04:58.959Z,1.59
2023-03-05T02:07:25.416Z,1.60
2023-03-05T02:09:51.797Z,1.60
2023-03-05T02:12:18.762Z,1.59
2023-03-05T02:14:50.937Z,1.60
2023-03-05T02:17:17.504Z,1.54
2023-03-05T02:19:52.907Z,1.52
2023-03-05T02:22:21.339Z,1.56
2023-03-05T02:24:47.765Z,1.49
2023-03-05T02:27:14.863Z,1.54
2023-03-05T02:29:44.519Z,1.53
2023-03-05T02:32:11.654Z,1.52
2023-03-05T02:34:38.365Z,1.50
2023-03-05T02:37:08.955Z,1.50
2023-03-05T02:39:35.274Z,1.47
2023-03-05T02:42:01.711Z,1.47
2023-03-05T02:44:28.108Z,1.47
2023-03-05T02:46:54.479Z,1.43
2023-03-05T02:49:21.151Z,1.43
2023-03-05T02:51:47.797Z,1.42
2023-03-05T02:54:14.391Z,1.41
2023-03-05T02:56:40.840Z,1.43
2023-03-05T02:59:07.201Z,1.38
2023-03-05T03:01:33.572Z,1.39
2023-03-05T03:04:00.094Z,1.36
2023-03-05T03:06:26.664Z,1.40
2023-03-05T03:08:53.082Z,1.35
2023-03-05T03:11:20.793Z,1.33
2023-03-05T03:13:47.458Z,1.33
2023-03-05T03:16:15.721Z,1.30
2023-03-05T03:18:42.712Z,1.30
2023-03-05T03:21:09.061Z,1.34
2023-03-05T03:23:38.498Z,1.28
2023-03-05T03:26:04.995Z,1.27
2023-03-05T03:28:31.644Z,1.29
2023-03-05T03:30:58.340Z,1.31
2023-03-05T03:33:24.744Z,1.29
2023-03-05T03:35:51.121Z,1.24
2023-03-05T03:38:17.558Z,1.28
2023-03-05T03:40:43.972Z,1.23
2023-03-05T03:43:10.362Z,1.24
2023-03-05T03:45:41.873Z,1.17
2023-03-05T03:48:08.956Z,1.19
2023-03-05T03:50:38.923Z,1.24
2023-03-05T03:53:05.796Z,1.24
2023-03-05T03:55:32.187Z,1.22
2023-03-05T03:57:58.521Z,1.23
2023-03-05T04:00:24.884Z,1.23
2023-03-05T04:02:51.413Z,1.20
2023-03-05T04:05:18.183Z,1.19
2023-03-05T04:07:45.367Z,1.21
2023-03-05T04:10:12.612Z,1.14
2023-03-05T04:12:38.979Z,1.20
2023-03-05T04:15:07.863Z,1.18
2023-03-05T04:17:34.436Z,1.15
2023-03-05T04:20:01.310Z,1.16
2023-03-05T04:22:27.695Z,1.15
2023-03-05T04:24:54.363Z,1.14
2023-03-05T04:27:21.290Z,1.14
2023-03-05T04:29:48.061Z,1.16
2023-03-05T04:32:14.615Z,1.15
2023-03-05T04:34:41.069Z,1.14
2023-03-05T04:37:07.396Z,1.13
2023-03-05T04:39:33.835Z,1.15
2023-03-05T04:42:00.241Z,1.09
2023-03-05T04:44:26.572Z,1.07
2023-03-05T04:46:52.939Z,1.09
2023-03-05T04:49:19.304Z,1.06
2023-03-05T04:51:45.681Z,1.07
2023-03-05T04:54:12.039Z,1.08
2023-03-05T04:56:38.364Z,1.01
2023-03-05T04:59:04.743Z,1.00
2023-03-05T05:01:31.227Z,0.96
2023-03-05T05:03:57.611Z,0.96
2023-03-05T05:06:23.972Z,0.91
2023-03-05T05:08:50.361Z,0.94
2023-03-05T05:11:16.722Z,0.97
2023-03-05T05:13:43.098Z,0.91
2023-03-05T05:16:09.641Z,0.93
2023-03-05T05:18:36.103Z,0.93
2023-03-05T05:21:02.549Z,0.89
2023-03-05T05:23:28.937Z,0.90
2023-03-05T05:25:57.677Z,0.88
2023-03-05T05:28:24.357Z,0.91
2023-03-05T05:30:50.757Z,0.94
2023-03-05T05:33:17.118Z,0.96
2023-03-05T05:35:43.510Z,0.89
2023-03-05T05:38:09.946Z,0.94
2023-03-05T05:40:36.572Z,0.87
2023-03-05T05:43:03.206Z,0.91
2023-03-05T05:45:29.855Z,0.91
2023-03-05T05:47:56.328Z,0.99
2023-03-05T05:50:22.756Z,0.99
2023-03-05T05:52:52.043Z,1.05
2023-03-05T05:55:18.812Z,1.07
2023-03-05T05:57:45.197Z,1.04
2023-03-05T06:00:13.460Z,1.03
2023-03-05T06:02:41.201Z,1.02
2023-03-05T06:05:09.715Z,1.01
2023-03-05T06:07:36.281Z,1.02
2023-03-05T06:10:03.166Z,1.05
2023-03-05T06:12:29.620Z,1.09
2023-03-05T06:14:56.098Z,1.06
2023-03-05T06:17:30.335Z,1.07
2023-03-05T06:19:58.272Z,1.06
2023-03-05T06:22:24.883Z,1.14
2023-03-05T06:24:51.594Z,1.12
2023-03-05T06:27:18.027Z,1.20
2023-03-05T06:29:44.384Z,1.18
2023-03-05T06:32:10.989Z,1.20
2023-03-05T06:34:37.406Z,1.25
2023-03-05T06:37:03.952Z,1.19
2023-03-05T06:39:31.524Z,1.18
2023-03-05T06:41:58.125Z,1.20
2023-03-05T06:44:25.574Z,1.21
2023-03-05T06:46:51.972Z,1.26
2023-03-05T06:49:18.375Z,1.25
2023-03-05T06:51:44.834Z,1.27
2023-03-05T06:54:14.035Z,1.32
2023-03-05T06:56:42.841Z,1.28
2023-03-05T06:59:10.675Z,1.19
2023-03-05T07:01:37.234Z,1.20
2023-03-05T07:04:04.445Z,1.13
2023-03-05T07:06:36.362Z,1.12
2023-03-05T07:09:05.069Z,1.08
2023-03-05T07:11:32.366Z,1.07
2023-03-05T07:13:58.911Z,1.09
2023-03-05T07:16:30.646Z,1.11
2023-03-05T07:18:58.397Z,1.01
2023-03-05T07:21:28.068Z,0.97
2023-03-05T07:23:57.538Z,1.03
2023-03-05T07:26:24.992Z,1.11
2023-03-05T07:28:51.806Z,1.09
2023-03-05T07:31:23.798Z,1.07
2023-03-05T07:33:50.650Z,1.06
2023-03-05T07:36:17.444Z,1.19
2023-03-05T07:38:43.870Z,1.14
2023-03-05T07:41:12.918Z,1.19
2023-03-05T07:43:39.967Z,1.21
2023-03-05T07:46:11.762Z,1.24
2023-03-05T07:48:38.672Z,1.32
2023-03-05T07:51:15.764Z,1.31
2023-03-05T07:53:47.732Z,1.28
2023-03-05T07:56:20.532Z,1.33
2023-03-05T07:58:47.185Z,1.36
2023-03-05T08:01:14.353Z,1.30
2023-03-05T08:03:41.855Z,1.24
2023-03-05T08:06:09.359Z,1.26
2023-03-05T08:08:36.224Z,1.26
2023-03-05T08:11:07.242Z,1.27
2023-03-05T08:13:33.927Z,1.20
2023-03-05T08:16:06.025Z,1.17
2023-03-05T08:18:32.482Z,1.19
2023-03-05T08:20:59.287Z,1.19
2023-03-05T08:23:25.794Z,1.27
2023-03-05T08:25:52.165Z,1.28
2023-03-05T08:28:19.666Z,1.35
2023-03-05T08:30:47.834Z,1.46
2023-03-05T08:33:15.283Z,1.42
2023-03-05T08:35:41.695Z,1.41
2023-03-05T08:38:08.057Z,1.43
2023-03-05T08:40:34.518Z,1.48
2023-03-05T08:43:00.888Z,1.61
2023-03-05T08:45:28.507Z,1.66
2023-03-05T08:47:56.235Z,1.67
2023-03-05T08:50:23.437Z,1.85
2023-03-05T08:52:50.305Z,2.01
2023-03-05T08:55:16.724Z,2.02
2023-03-05T08:57:43.104Z,2.05
2023-03-05T09:00:10.425Z,1.91
2023-03-05T09:02:37.127Z,1.83
2023-03-05T09:05:03.881Z,1.79
2023-03-05T09:07:30.230Z,1.61
2023-03-05T09:09:56.596Z,1.48
2023-03-05T09:12:22.944Z,1.42
2023-03-05T09:14:49.761Z,1.42
2023-03-05T09:17:16.220Z,1.42
2023-03-05T09:19:42.664Z,1.40
2023-03-05T09:22:09.090Z,1.51
2023-03-05T09:24:35.577Z,1.42
2023-03-05T09:27:02.002Z,1.40
2023-03-05T09:29:30.825Z,1.44
2023-03-05T09:31:57.267Z,1.38
2023-03-05T09:34:23.898Z,1.42
2023-03-05T09:36:50.293Z,1.46
2023-03-05T09:39:17.067Z,1.51
2023-03-05T09:42:10.148Z,1.61
2023-03-05T09:45:00.599Z,1.64
2023-03-05T09:47:47.895Z,1.74
2023-03-05T09:50:32.875Z,1.82
2023-03-05T09:53:07.782Z,1.92
2023-03-05T09:55:40.874Z,1.94
2023-03-05T09:58:30.393Z,1.94
2023-03-05T10:01:02.218Z,2.07
2023-03-05T10:03:36.531Z,2.20
2023-03-05T10:06:44.758Z,2.34
2023-03-05T10:09:11.038Z,2.33
2023-03-05T10:11:49.224Z,2.36
2023-03-05T10:14:28.710Z,2.48
2023-03-05T10:17:24.957Z,2.56
2023-03-05T10:20:04.361Z,2.68
2023-03-05T10:22:37.222Z,2.60
2023-03-05T10:25:25.515Z,2.54
2023-03-05T10:27:56.382Z,2.63
2023-03-05T10:30:33.939Z,2.77
2023-03-05T10:33:22.517Z,2.79
2023-03-05T10:36:03.573Z,2.87
2023-03-05T10:38:59.816Z,2.93
2023-03-05T10:41:29.213Z,2.90
2023-03-05T10:44:08.706Z,2.96
2023-03-05T10:46:37.210Z,2.84
2023-03-05T10:49:19.437Z,2.73
2023-03-05T10:51:55.944Z,2.71
2023-03-05T10:54:33.775Z,2.76
2023-03-05T10:57:12.068Z,2.60
2023-03-05T11:00:18.265Z,2.62
2023-03-05T11:03:08.763Z,2.52
2023-03-05T11:05:53.482Z,2.61
2023-03-05T11:08:34.483Z,2.65
2023-03-05T11:11:09.939Z,2.76
2023-03-05T11:13:38.811Z,2.72
2023-03-05T11:16:10.834Z,2.84
2023-03-05T11:18:37.774Z,2.69
2023-03-05T11:21:09.435Z,2.56
2023-03-05T11:23:36.061Z,2.59
2023-03-05T11:26:21.722Z,2.51
2023-03-05T11:28:53.963Z,2.49
2023-03-05T11:31:24.262Z,2.44
2023-03-05T11:34:03.279Z,2.40
2023-03-05T11:36:36.735Z,2.48
2023-03-05T11:39:06.119Z,2.42
2023-03-05T11:41:37.636Z,2.48
2023-03-05T11:44:13.087Z,2.45
2023-03-05T11:46:54.270Z,2.43
2023-03-05T11:49:27.453Z,2.50
2023-03-05T11:52:15.590Z,2.40
2023-03-05T11:55:12.812Z,2.47
2023-03-05T11:58:12.585Z,2.53
2023-03-05T12:00:44.290Z,2.54
2023-03-05T12:03:28.953Z,2.41
2023-03-05T12:06:07.543Z,2.44
2023-03-05T12:08:37.240Z,2.41
2023-03-05T12:11:15.576Z,2.38
2023-03-05T12:13:46.661Z,2.49
2023-03-05T12:16:15.877Z,2.50
2023-03-05T12:18:52.240Z,2.58
2023-03-05T12:21:32.976Z,2.59
2023-03-05T12:24:02.350Z,2.66
2023-03-05T12:26:53.341Z,2.69
2023-03-05T12:29:46.096Z,2.57
2023-03-05T12:32:31.684Z,2.66
2023-03-05T12:35:04.325Z,2.70
2023-03-05T12:37:31.111Z,2.66
2023-03-05T12:40:10.707Z,2.64
2023-03-05T12:43:04.658Z,2.65
2023-03-05T12:45:34.458Z,2.67
2023-03-05T12:48:00.700Z,2.66
2023-03-05T12:50:27.084Z,2.62
2023-03-05T12:52:54.356Z,2.63
2023-03-05T12:55:49.580Z,2.65
2023-03-05T12:58:44.946Z,2.50
2023-03-05T13:01:11.331Z,2.59
2023-03-05T13:03:47.701Z,2.64
2023-03-05T13:06:34.075Z,2.61
2023-03-05T13:09:18.582Z,2.64
2023-03-05T13:11:48.287Z,2.73
2023-03-05T13:14:35.213Z,2.70
2023-03-05T13:17:02.732Z,2.70
2023-03-05T13:19:32.744Z,2.72
2023-03-05T13:22:02.471Z,2.73
2023-03-05T13:24:29.952Z,2.69
2023-03-05T13:26:56.744Z,2.78
2023-03-05T13:29:28.100Z,2.82
2023-03-05T13:31:59.962Z,2.71
2023-03-05T13:34:44.540Z,2.77
2023-03-05T13:37:18.532Z,2.71
2023-03-05T13:39:50.741Z,2.71
2023-03-05T13:42:26.106Z,2.70
2023-03-05T13:45:02.832Z,2.68
2023-03-05T13:47:31.872Z,2.66
2023-03-05T13:50:05.662Z,2.70
2023-03-05T13:52:34.857Z,2.61
2023-03-05T13:55:03.157Z,2.62
2023-03-05T13:57:43.556Z,2.68
2023-03-05T14:00:36.503Z,2.72
2023-03-05T14:03:26.574Z,2.78
2023-03-05T14:05:54.173Z,2.80
2023-03-05T14:08:24.265Z,2.79
2023-03-05T14:10:54.021Z,2.85
2023-03-05T14:13:24.161Z,2.86
2023-03-05T14:16:14.917Z,2.84
2023-03-05T14:18:59.232Z,2.80
2023-03-05T14:21:25.898Z,2.86
2023-03-05T14:23:54.856Z,2.71
2023-03-05T14:26:33.723Z,2.32
2023-03-05T14:29:01.436Z,2.07
2023-03-05T14:31:30.303Z,1.95
2023-03-05T14:34:07.328Z,1.88
2023-03-05T14:36:34.196Z,1.85
2023-03-05T14:39:02.065Z,1.92
2023-03-05T14:41:40.538Z,1.85
2023-03-05T14:44:17.807Z,1.76
2023-03-05T14:46:49.053Z,1.74
2023-03-05T14:49:16.859Z,1.82
2023-03-05T14:51:45.787Z,1.92
2023-03-05T14:54:20.820Z,1.88
2023-03-05T14:56:47.924Z,1.82
2023-03-05T14:59:14.286Z,1.85
2023-03-05T15:01:40.688Z,1.80
2023-03-05T15:04:07.061Z,1.85
2023-03-05T15:06:38.009Z,1.85
2023-03-05T15:09:05.920Z,1.85
2023-03-05T15:11:32.344Z,1.76
2023-03-05T15:13:59.009Z,1.56
2023-03-05T15:16:25.641Z,1.51
2023-03-05T15:18:51.995Z,1.55
2023-03-05T15:21:18.375Z,1.54
2023-03-05T15:23:45.233Z,1.56
2023-03-05T15:26:14.036Z,1.65
2023-03-05T15:28:41.165Z,1.67
2023-03-05T15:31:07.781Z,1.64
2023-03-05T15:33:34.417Z,1.71
2023-03-05T15:36:00.869Z,1.70
2023-03-05T15:38:27.245Z,1.67
2023-03-05T15:40:54.000Z,1.73
2023-03-05T15:43:20.635Z,1.77
2023-03-05T15:45:47.824Z,1.75
2023-03-05T15:48:14.546Z,1.79
2023-03-05T15:50:43.165Z,1.75
2023-03-05T15:53:12.659Z,1.78
2023-03-05T15:55:40.446Z,1.76
2023-03-05T15:58:07.736Z,1.89
2023-03-05T16:00:37.103Z,1.84
2023-03-05T16:03:04.061Z,1.82
2023-03-05T16:05:30.498Z,1.87
2023-03-05T16:07:57.232Z,1.97
2023-03-05T16:10:26.707Z,1.90
2023-03-05T16:12:56.873Z,1.90
2023-03-05T16:15:24.039Z,1.93
2023-03-05T16:17:54.492Z,1.86
2023-03-05T16:20:21.875Z,1.93
2023-03-05T16:22:49.280Z,1.80
2023-03-05T16:25:15.804Z,1.78
2023-03-05T16:27:42.211Z,1.81
2023-03-05T16:30:09.186Z,1.79
2023-03-05T16:32:37.649Z,1.80
2023-03-05T16:35:04.371Z,1.84
2023-03-05T16:37:30.725Z,1.85
2023-03-05T16:39:59.906Z,1.82
2023-03-05T16:42:26.331Z,1.89
2023-03-05T16:44:52.709Z,1.91
2023-03-05T16:47:19.074Z,1.87
2023-03-05T16:49:45.426Z,1.87
2023-03-05T16:52:18.695Z,1.94
2023-03-05T16:54:46.171Z,1.87
2023-03-05T16:57:12.557Z,1.91
2023-03-05T16:59:39.083Z,1.90
2023-03-05T17:02:05.803Z,1.91
2023-03-05T17:04:32.727Z,2.00
2023-03-05T17:06:59.137Z,2.00
2023-03-05T17:09:25.856Z,2.05
2023-03-05T17:11:53.117Z,2.03
2023-03-05T17:14:19.877Z,2.03
2023-03-05T17:16:46.683Z,2.03
2023-03-05T17:19:13.413Z,2.05
2023-03-05T17:21:42.207Z,2.02
2023-03-05T17:24:09.936Z,2.03
2023-03-05T17:26:36.909Z,2.02
2023-03-05T17:29:04.658Z,2.04
2023-03-05T17:31:32.130Z,2.03
2023-03-05T17:33:58.597Z,2.06
2023-03-05T17:36:25.377Z,2.06
2023-03-05T17:38:52.183Z,2.08
2023-03-05T17:41:19.519Z,1.99
2023-03-05T17:43:46.463Z,1.99
2023-03-05T17:46:13.544Z,2.04
2023-03-05T17:48:40.129Z,2.07
2023-03-05T17:51:08.021Z,2.02
2023-03-05T17:53:35.940Z,1.97
2023-03-05T17:56:06.585Z,1.97
2023-03-05T17:58:32.940Z,1.98
2023-03-05T18:01:00.278Z,2.00
2023-03-05T18:03:26.828Z,1.95
2023-03-05T18:05:54.208Z,1.88
2023-03-05T18:08:20.652Z,1.93
2023-03-05T18:10:46.982Z,1.99
2023-03-05T18:13:13.324Z,2.00
2023-03-05T18:15:47.216Z,1.95
2023-03-05T18:18:17.916Z,1.98
2023-03-05T18:20:44.844Z,2.00
2023-03-05T18:23:12.484Z,1.99
2023-03-05T18:25:38.832Z,1.95
2023-03-05T18:28:13.251Z,1.98
2023-03-05T18:30:41.030Z,1.93
2023-03-05T18:33:08.779Z,1.95
2023-03-05T18:35:35.276Z,1.88
2023-03-05T18:38:01.866Z,1.79
2023-03-05T18:40:32.521Z,1.79
2023-03-05T18:43:00.593Z,1.82
2023-03-05T18:45:27.506Z,1.75
2023-03-05T18:47:54.317Z,1.75
2023-03-05T18:50:22.850Z,1.68
2023-03-05T18:52:49.555Z,1.58
2023-03-05T18:55:17.966Z,1.50
2023-03-05T18:57:44.379Z,1.44
2023-03-05T19:00:14.858Z,1.40
2023-03-05T19:02:41.222Z,1.36
2023-03-05T19:05:08.430Z,1.46
2023-03-05T19:07:35.225Z,1.33
2023-03-05T19:10:07.451Z,1.32
2023-03-05T19:12:41.733Z,1.40
2023-03-05T19:15:08.534Z,1.35
2023-03-05T19:17:34.884Z,1.35
2023-03-05T19:20:03.818Z,1.37
2023-03-05T19:22:32.392Z,1.35
2023-03-05T19:24:59.461Z,1.43
2023-03-05T19:27:26.488Z,1.38
2023-03-05T19:29:53.513Z,1.41
2023-03-05T19:32:21.871Z,1.40
2023-03-05T19:34:48.989Z,1.39
2023-03-05T19:37:15.694Z,1.49
2023-03-05T19:39:42.247Z,1.43
2023-03-05T19:42:08.772Z,1.46
2023-03-05T19:44:36.153Z,1.41
2023-03-05T19:47:02.597Z,1.41
2023-03-05T19:49:28.975Z,1.40
2023-03-05T19:51:55.535Z,1.40
2023-03-05T19:54:22.937Z,1.41
2023-03-05T19:56:52.329Z,1.51
2023-03-05T19:59:21.132Z,1.47
2023-03-05T20:01:48.948Z,1.45
2023-03-05T20:04:19.559Z,1.48
2023-03-05T20:06:46.069Z,1.51
2023-03-05T20:09:12.559Z,1.50
2023-03-05T20:11:39.556Z,1.50
2023-03-05T20:14:09.289Z,1.47
2023-03-05T20:16:40.280Z,1.56
2023-03-05T20:19:08.080Z,1.58
2023-03-05T20:21:40.558Z,1.56
2023-03-05T20:24:10.551Z,1.52
2023-03-05T20:26:38.568Z,1.51
2023-03-05T20:29:06.073Z,1.53
2023-03-05T20:31:35.243Z,1.58
2023-03-05T20:34:01.669Z,1.52
2023-03-05T20:36:28.230Z,1.48
2023-03-05T20:38:55.739Z,1.46
2023-03-05T20:41:22.199Z,1.45
2023-03-05T20:43:50.686Z,1.50
2023-03-05T20:46:23.374Z,1.48
2023-03-05T20:48:53.163Z,1.48
2023-03-05T20:51:22.569Z,1.48
2023-03-05T20:53:54.198Z,1.48
2023-03-05T20:56:20.603Z,1.56
2023-03-05T20:58:50.106Z,1.54
2023-03-05T21:01:16.475Z,1.51
2023-03-05T21:03:42.826Z,1.47
2023-03-05T21:06:09.298Z,1.52
2023-03-05T21:08:35.971Z,1.49
2023-03-05T21:11:08.068Z,1.48
2023-03-05T21:13:34.470Z,1.47
2023-03-05T21:16:01.367Z,1.46
2023-03-05T21:18:31.096Z,1.52
2023-03-05T21:20:57.432Z,1.51
2023-03-05T21:23:23.925Z,1.50
2023-03-05T21:25:50.352Z,1.55
2023-03-05T21:28:17.730Z,1.55
2023-03-05T21:30:47.229Z,1.57
2023-03-05T21:33:16.708Z,1.62
2023-03-05T21:35:44.100Z,1.62
2023-03-05T21:38:11.044Z,1.62
2023-03-05T21:40:43.481Z,1.73
2023-03-05T21:43:11.599Z,1.71
2023-03-05T21:45:39.376Z,1.79
2023-03-05T21:48:06.873Z,1.82
2023-03-05T21:50:34.026Z,1.96
2023-03-05T21:53:01.740Z,1.84
2023-03-05T21:55:32.985Z,1.86
2023-03-05T21:58:00.135Z,1.87
2023-03-05T22:00:27.154Z,1.84
2023-03-05T22:02:53.992Z,1.94
2023-03-05T22:05:20.427Z,1.96
2023-03-05T22:07:47.204Z,1.96
2023-03-05T22:10:16.029Z,1.87
2023-03-05T22:13:06.714Z,1.96
2023-03-05T22:15:33.841Z,1.98
2023-03-05T22:18:00.543Z,1.90
2023-03-05T22:20:27.268Z,1.93
2023-03-05T22:22:53.625Z,1.94
2023-03-05T22:25:19.978Z,1.93
2023-03-05T22:27:46.358Z,1.95
2023-03-05T22:30:13.580Z,1.92
2023-03-05T22:32:39.969Z,1.91
2023-03-05T22:35:10.051Z,2.00
2023-03-05T22:37:36.417Z,1.93
2023-03-05T22:40:03.574Z,1.92
2023-03-05T22:42:29.923Z,1.98
2023-03-05T22:44:57.790Z,1.92
2023-03-05T22:47:25.507Z,1.88
2023-03-05T22:49:51.922Z,1.92
2023-03-05T22:52:18.257Z,1.95
2023-03-05T22:54:44.618Z,1.94
2023-03-05T22:57:11.237Z,1.96
2023-03-05T22:59:37.882Z,1.94
2023-03-05T23:02:04.397Z,1.90
2023-03-05T23:04:48.781Z,1.92
2023-03-05T23:07:17.548Z,1.94
2023-03-05T23:09:44.335Z,1.91
2023-03-05T23:12:12.276Z,1.92
2023-03-05T23:14:38.727Z,1.91
2023-03-05T23:17:05.187Z,1.99
2023-03-05T23:19:31.752Z,2.02
2023-03-05T23:21:58.189Z,1.92
2023-03-05T23:24:24.589Z,1.97
2023-03-05T23:26:51.006Z,1.98
2023-03-05T23:29:17.496Z,1.97
2023-03-05T23:31:43.858Z,1.98
2023-03-05T23:34:10.234Z,2.02
2023-03-05T23:36:36.646Z,1.97
2023-03-05T23:39:03.009Z,2.02
2023-03-05T23:41:29.370Z,2.00
2023-03-05T23:43:55.703Z,1.98
2023-03-05T23:46:22.119Z,2.02
2023-03-05T23:48:48.508Z,2.01
2023-03-05T23:51:14.984Z,2.03
2023-03-05T23:53:41.330Z,2.05
2023-03-05T23:56:11.617Z,1.99
2023-03-05T23:58:38.812Z,2.02
